createdAt,value
2019-03-27T00:00:02.689Z,86.99
2019-03-27T00:05:08.961Z,87.33
2019-03-27T00:10:02.945Z,87.52
2019-03-27T00:15:16.097Z,87.75
2019-03-27T00:20:09.163Z,87.71
2019-03-27T00:25:07.813Z,88.49
2019-03-27T00:30:03.283Z,88.3
2019-03-27T00:35:06.497Z,88.73
2019-03-27T00:40:05.756Z,88.94
2019-03-27T00:45:03.245Z,89.1
2019-03-27T00:50:04.075Z,89.55
2019-03-27T00:55:03.994Z,89.68
2019-03-27T01:00:02.583Z,90.08
2019-03-27T01:05:04.485Z,90.53
2019-03-27T01:10:05.121Z,90.97
2019-03-27T01:15:03.210Z,91.25
2019-03-27T01:20:04.100Z,91.44
2019-03-27T01:25:05.906Z,91.84
2019-03-27T01:30:03.959Z,91.99
2019-03-27T01:35:04.916Z,92.3
2019-03-27T01:40:06.101Z,92.35
2019-03-27T01:45:04.175Z,92.35
2019-03-27T01:50:07.798Z,92.39
2019-03-27T01:55:07.476Z,92.54
2019-03-27T02:00:03.949Z,92.85
2019-03-27T02:05:06.498Z,92.87
2019-03-27T02:10:17.546Z,93.31
2019-03-27T02:15:05.678Z,93.34
2019-03-27T02:20:15.547Z,93.67
2019-03-27T02:25:08.315Z,93.48
2019-03-27T02:30:06.654Z,93.61
2019-03-27T02:35:07.232Z,93.69
2019-03-27T02:40:09.329Z,93.67
2019-03-27T02:45:03.802Z,93.82
2019-03-27T02:50:07.439Z,94.04
2019-03-27T02:55:09.701Z,93.81
2019-03-27T03:00:04.173Z,93.86
2019-03-27T03:05:07.643Z,93.75
2019-03-27T03:10:09.591Z,93.88
2019-03-27T03:15:07.427Z,93.81
2019-03-27T03:20:09.144Z,93.74
2019-03-27T03:25:09.576Z,93.47
2019-03-27T03:30:11.065Z,93.32
2019-03-27T03:35:13.909Z,92.99
2019-03-27T03:40:09.223Z,92.71
2019-03-27T03:45:09.259Z,92.53
2019-03-27T03:50:14.252Z,92.46
2019-03-27T03:55:08.978Z,92.51
2019-03-27T04:00:04.695Z,92.69
2019-03-27T04:05:13.071Z,92.99
2019-03-27T04:10:04.854Z,93.32
2019-03-27T04:15:08.144Z,93.56
2019-03-27T04:20:06.918Z,93.84
2019-03-27T04:25:07.315Z,94.03
2019-03-27T04:30:03.796Z,94.22
2019-03-27T04:35:08.048Z,94.45
2019-03-27T04:40:08.724Z,93.72
2019-03-27T04:45:03.236Z,93.97
2019-03-27T04:50:09.387Z,93.76
2019-03-27T04:55:07.602Z,93.48
2019-03-27T05:00:03.185Z,93.62
2019-03-27T05:05:09.758Z,93.69
2019-03-27T05:10:08.384Z,93.74
2019-03-27T05:15:03.797Z,93.79
2019-03-27T05:20:09.312Z,94.02
2019-03-27T05:25:06.900Z,93.97
2019-03-27T05:30:03.435Z,93.77
2019-03-27T05:35:06.647Z,93.99
2019-03-27T05:40:07.599Z,93.92
2019-03-27T05:45:03.039Z,93.77
2019-03-27T05:50:07.702Z,93.84
2019-03-27T05:55:08.995Z,94.15
2019-03-27T06:00:02.603Z,93.83
2019-03-27T06:05:07.229Z,94.04
2019-03-27T06:10:05.323Z,94.08
2019-03-27T06:15:06.580Z,93.93
2019-03-27T06:20:07.272Z,94.02
2019-03-27T06:25:10.477Z,94.22
2019-03-27T06:30:03.025Z,94.32
2019-03-27T06:35:05.243Z,94.35
2019-03-27T06:40:07.135Z,94.06
2019-03-27T06:45:02.683Z,94.15
2019-03-27T06:50:07.304Z,94.13
2019-03-27T06:55:04.153Z,94.16
2019-03-27T07:00:02.747Z,94.02
2019-03-27T07:05:04.585Z,93.9
2019-03-27T07:10:03.944Z,93.42
2019-03-27T07:20:04.139Z,92.8
2019-03-27T07:25:04.391Z,92.88
2019-03-27T07:30:02.891Z,92.61
2019-03-27T07:35:06.223Z,92.55
2019-03-27T07:40:07.952Z,92.44
2019-03-27T07:45:03.660Z,91.92
2019-03-27T07:50:08.288Z,92.45
2019-03-27T07:55:20.111Z,92.48
2019-03-27T08:00:04.642Z,91.84
2019-03-27T08:05:07.290Z,91.97
2019-03-27T08:10:06.062Z,91.48
2019-03-27T08:15:06.752Z,91.61
2019-03-27T08:20:09.537Z,89.65
2019-03-27T08:25:08.083Z,88.2
2019-03-27T08:30:03.860Z,87.43
2019-03-27T08:35:10.882Z,87.81
2019-03-27T08:40:08.070Z,88.2
2019-03-27T08:45:03.845Z,87.45
2019-03-27T08:50:07.831Z,86.14
2019-03-27T08:55:07.973Z,85.38
2019-03-27T09:00:04.055Z,85.47
2019-03-27T09:05:07.403Z,84.07
2019-03-27T09:10:06.132Z,83.24
2019-03-27T09:15:03.913Z,84.24
2019-03-27T09:20:05.784Z,82.8
2019-03-27T09:25:07.935Z,82.18
2019-03-27T09:30:03.747Z,81.92
2019-03-27T09:35:06.580Z,83.09
2019-03-27T09:40:07.379Z,82.84
2019-03-27T09:45:03.856Z,84.39
2019-03-27T09:50:06.481Z,85.47
2019-03-27T09:55:07.277Z,85.4
2019-03-27T10:00:03.921Z,85.46
2019-03-27T10:05:05.980Z,86.33
2019-03-27T10:10:06.506Z,84.15
2019-03-27T10:15:04.203Z,83.9
2019-03-27T10:20:06.968Z,81.76
2019-03-27T10:25:07.699Z,80.62
2019-03-27T10:30:04.263Z,80.57
2019-03-27T10:35:06.878Z,79.8
2019-03-27T10:40:08.076Z,80.2
2019-03-27T10:45:03.904Z,80.42
2019-03-27T10:50:19.871Z,80.32
2019-03-27T10:55:09.903Z,79
2019-03-27T11:00:03.971Z,79.02
2019-03-27T11:05:07.941Z,79.44
2019-03-27T11:10:10.628Z,79.04
2019-03-27T11:15:01.821Z,79.35
2019-03-27T11:20:06.330Z,74.89
2019-03-27T11:25:07.587Z,71.21
2019-03-27T11:30:03.588Z,70.48
2019-03-27T11:35:07.335Z,70.86
2019-03-27T11:40:09.426Z,67.71
2019-03-27T11:45:02.922Z,70.99
2019-03-27T11:50:08.331Z,70.13
2019-03-27T11:55:09.390Z,65.74
2019-03-27T12:00:03.108Z,66.96
2019-03-27T12:05:09.635Z,67.96
2019-03-27T12:10:03.291Z,68.5
2019-03-27T12:15:06.323Z,64.71
2019-03-27T12:20:07.296Z,69.3
2019-03-27T12:25:07.985Z,69.25
2019-03-27T12:30:02.518Z,70.62
2019-03-27T12:35:06.022Z,69.94
2019-03-27T12:40:14.294Z,69.88
2019-03-27T12:45:03.186Z,69.33
2019-03-27T12:50:05.502Z,69.46
2019-03-27T12:55:05.595Z,69.22
2019-03-27T13:00:03.083Z,70.25
2019-03-27T13:05:05.736Z,70.18
2019-03-27T13:10:08.798Z,70.73
2019-03-27T13:15:03.866Z,70.27
2019-03-27T13:20:08.397Z,70.23
2019-03-27T13:25:11.194Z,70.22
2019-03-27T13:30:03.345Z,69.82
2019-03-27T13:35:08.813Z,70.47
2019-03-27T13:40:07.920Z,65.83
2019-03-27T13:45:02.926Z,66.65
2019-03-27T13:50:06.450Z,68.41
2019-03-27T13:55:06.041Z,66.22
2019-03-27T14:00:03.226Z,66.68
2019-03-27T14:05:05.470Z,66.17
2019-03-27T14:10:05.679Z,67.21
2019-03-27T14:15:03.677Z,66.07
2019-03-27T14:20:07.123Z,66.2
2019-03-27T14:25:10.259Z,66.05
2019-03-27T14:30:04.333Z,65.93
2019-03-27T14:35:09.787Z,66.35
2019-03-27T14:40:09.097Z,66.09
2019-03-27T14:45:04.009Z,63.47
2019-03-27T14:50:09.622Z,64.39
2019-03-27T14:55:08.137Z,64.8
2019-03-27T15:00:03.838Z,66.85
2019-03-27T15:05:08.227Z,65.89
2019-03-27T15:10:05.470Z,65.82
2019-03-27T15:15:03.930Z,67.1
2019-03-27T15:20:06.083Z,67.38
2019-03-27T15:25:06.637Z,66.56
2019-03-27T15:30:03.739Z,66.08
2019-03-27T15:35:07.853Z,66.2
2019-03-27T15:40:06.925Z,64.96
2019-03-27T15:45:03.644Z,66.48
2019-03-27T15:50:07.107Z,67.02
2019-03-27T15:55:06.036Z,66.54
2019-03-27T16:00:03.892Z,65.47
2019-03-27T16:05:06.623Z,66.77
2019-03-27T16:10:07.217Z,66.77
2019-03-27T16:15:03.953Z,66.81
2019-03-27T16:20:06.415Z,67.73
2019-03-27T16:25:08.359Z,67.83
2019-03-27T16:30:03.691Z,68.28
2019-03-27T16:35:07.208Z,69.42
2019-03-27T16:40:06.890Z,69.29
2019-03-27T16:45:04.411Z,68.41
2019-03-27T16:50:06.882Z,69.38
2019-03-27T16:55:09.189Z,68.91
2019-03-27T17:00:02.811Z,69.26
2019-03-27T17:05:10.088Z,70.1
2019-03-27T17:10:07.294Z,71.61
2019-03-27T17:15:03.374Z,72.33
2019-03-27T17:20:07.935Z,72.39
2019-03-27T17:25:07.542Z,72.33
2019-03-27T17:30:03.189Z,73.17
2019-03-27T17:35:07.230Z,72.29
2019-03-27T17:40:07.508Z,74.1
2019-03-27T17:45:03.121Z,74.1
2019-03-27T17:50:07.187Z,74.82
2019-03-27T17:55:07.451Z,74.78
2019-03-27T18:00:03.029Z,75.07
2019-03-27T18:05:07.288Z,75.62
2019-03-27T18:10:04.695Z,76
2019-03-27T18:15:07.919Z,76.46
2019-03-27T18:20:05.295Z,76.2
2019-03-27T18:25:05.616Z,76.39
2019-03-27T18:30:03.080Z,76.94
2019-03-27T18:35:05.162Z,77.23
2019-03-27T18:40:05.387Z,77.2
2019-03-27T18:45:02.927Z,77.82
2019-03-27T18:50:06.303Z,78.33
2019-03-27T18:55:07.582Z,79
2019-03-27T19:00:03.756Z,79.03
2019-03-27T19:05:06.774Z,79.33
2019-03-27T19:10:04.050Z,79.59
2019-03-27T19:15:03.622Z,79.93
2019-03-27T19:20:05.745Z,80.7
2019-03-27T19:25:06.223Z,80.65
2019-03-27T19:30:03.399Z,81.11
2019-03-27T19:35:05.579Z,81.33
2019-03-27T19:40:06.290Z,81.11
2019-03-27T19:45:04.669Z,82.59
2019-03-27T19:50:07.614Z,82.87
2019-03-27T19:55:07.330Z,82.43
2019-03-27T20:00:04.127Z,82.68
2019-03-27T20:05:06.727Z,83
2019-03-27T20:10:07.477Z,82.66
2019-03-27T20:15:13.398Z,83.11
2019-03-27T20:20:10.060Z,83.92
2019-03-27T20:25:09.123Z,83.53
2019-03-27T20:30:06.404Z,83.5
2019-03-27T20:35:12.416Z,83.66
2019-03-27T20:40:09.501Z,84.41
2019-03-27T20:45:09.639Z,84.24
2019-03-27T20:50:18.188Z,84.5
2019-03-27T20:55:11.472Z,84.83
2019-03-27T21:00:10.603Z,84.4
2019-03-27T21:05:15.324Z,84.61
2019-03-27T21:10:19.132Z,84.86
2019-03-27T21:15:11.208Z,85.34
2019-03-27T21:20:10.468Z,85.43
2019-03-27T21:25:13.715Z,85.58
2019-03-27T21:30:13.587Z,85.54
2019-03-27T21:35:11.686Z,85.59
2019-03-27T21:40:14.116Z,85.8
2019-03-27T21:45:15.191Z,86.37
2019-03-27T21:50:15.110Z,86.85
2019-03-27T21:55:27.449Z,87.2
2019-03-27T22:00:11.534Z,87.28
2019-03-27T22:05:09.501Z,87.39
2019-03-27T22:10:09.265Z,87.89
2019-03-27T22:15:10.398Z,88.17
2019-03-27T22:20:14.234Z,88.26
2019-03-27T22:25:12.802Z,87.97
2019-03-27T22:30:15.841Z,88.08
2019-03-27T22:35:14.080Z,88.02
2019-03-27T22:40:12.379Z,87.58
2019-03-27T22:45:14.605Z,87.43
2019-03-27T22:50:12.067Z,87.43
2019-03-27T22:55:11.506Z,87.56
2019-03-27T23:00:11.890Z,87.22
2019-03-27T23:05:12.285Z,87.01
2019-03-27T23:10:23.062Z,87.2
2019-03-27T23:15:14.114Z,87.26
2019-03-27T23:20:16.424Z,87.41
2019-03-27T23:25:10.755Z,87.49
2019-03-27T23:30:12.391Z,88.05
2019-03-27T23:35:14.705Z,87.92
2019-03-27T23:40:10.253Z,87.81
2019-03-27T23:45:13.008Z,88.22
2019-03-27T23:50:11.754Z,88.17
2019-03-27T23:55:09.592Z,87.85
